Time;durP1;ratioP1;P1;durP2;ratioP2;P2;SDS_P1;SDS_P2;PMS_P1;PMS_P2;Temp;Humidity;BMP_temperature;BMP_pressure;BME280_temperature;BME280_humidity;BME280_pressure;Samples;Min_cycle;Max_cycle;Signal;HPM_P1;HPM_P2
2022/11/04 00:00:00;;;;;;;16.67;9.77;;;19.60;91.10;;;19.56;56.81;98267.34;5053047;28;20040;-78
2022/11/04 00:02:27;;;;;;;14.73;9.00;;;19.60;91.10;;;19.56;56.51;98253.56;5037322;28;20154;-78
2022/11/04 00:04:54;;;;;;;19.73;10.57;;;19.60;91.00;;;19.62;56.45;98257.72;5035074;28;20111;-78
2022/11/04 00:10:06;;;;;;;15.52;8.93;;;19.70;91.20;;;19.57;57.01;98246.94;5052340;28;20476;-78
2022/11/04 00:12:32;;;;;;;17.13;10.00;;;19.70;91.30;;;19.57;56.50;98254.41;5040064;28;20487;-77
2022/11/04 00:17:18;;;;;;;17.63;9.52;;;19.60;91.10;;;19.55;56.37;98252.00;5050146;28;20094;-77
2022/11/04 00:17:44;;;;;;;20.92;10.68;;;19.60;91.10;;;19.52;56.41;98255.44;5056728;28;20040;-77
2022/11/04 00:28:42;;;;;;;19.15;8.45;;;19.60;91.40;;;19.57;56.78;98238.69;5057497;28;20476;-77
2022/11/04 00:33:56;;;;;;;16.60;8.93;;;19.60;91.10;;;19.51;56.64;98240.88;5057540;28;20064;-77
2022/11/04 00:36:23;;;;;;;21.42;9.77;;;19.60;91.10;;;19.49;56.54;98229.44;5061802;28;20041;-77
2022/11/04 00:38:49;;;;;;;22.58;11.13;;;19.50;91.00;;;19.54;56.90;98233.91;5060282;28;20067;-78
2022/11/04 00:41:25;;;;;;;17.38;8.90;;;19.60;91.30;;;19.53;57.21;98226.78;5041814;28;20040;-77
2022/11/04 00:44:00;;;;;;;17.63;9.77;;;19.60;91.40;;;19.50;57.07;98221.97;5064961;28;20059;-78
2022/11/04 00:46:28;;;;;;;18.05;9.73;;;19.60;91.20;;;19.47;56.88;98225.41;5037713;28;20075;-78
2022/11/04 00:48:54;;;;;;;16.30;8.57;;;19.50;91.20;;;19.49;56.94;98217.63;5051559;28;20072;-77
2022/11/04 00:51:21;;;;;;;13.68;8.45;;;19.50;91.10;;;19.48;56.50;98219.56;5035790;28;20523;-78
2022/11/04 00:53:47;;;;;;;15.05;9.40;;;19.50;91.10;;;19.48;57.07;98216.81;5071814;28;20040;-77
2022/11/04 00:56:13;;;;;;;18.45;10.38;;;19.50;91.20;;;19.48;57.50;98218.75;5054531;28;20501;-77
2022/11/04 00:58:39;;;;;;;14.32;10.00;;;19.50;91.30;;;19.48;57.36;98202.25;5050569;28;20087;-77
2022/11/04 01:01:10;;;;;;;18.33;9.32;;;19.50;91.40;;;19.50;56.93;98202.72;5037671;28;20032;-77
2022/11/04 01:03:36;;;;;;;19.27;9.50;;;19.50;91.20;;;19.44;56.79;98199.41;5042787;28;20037;-78
2022/11/04 01:06:03;;;;;;;15.88;9.15;;;19.50;91.20;;;19.45;56.86;98192.75;5052465;28;20566;-78
2022/11/04 01:08:29;;;;;;;16.65;9.25;;;19.40;91.10;;;19.47;56.62;98195.97;5036922;28;20411;-78
2022/11/04 01:10:55;;;;;;;19.52;8.75;;;19.50;91.10;;;19.49;57.09;98192.88;5054112;28;20040;-78
2022/11/04 01:13:21;;;;;;;18.50;9.45;;;19.50;91.30;;;19.51;57.35;98185.06;5039466;28;20093;-77
2022/11/04 01:15:48;;;;;;;18.70;10.13;;;19.60;91.40;;;19.50;56.93;98180.72;5041939;28;20054;-78
2022/11/04 01:18:13;;;;;;;19.88;9.77;;;19.50;91.20;;;19.39;56.91;98174.91;5051949;28;20063;-77
2022/11/04 01:20:40;;;;;;;15.80;8.55;;;19.50;91.10;;;19.41;56.94;98175.34;5052966;28;20032;-77
2022/11/04 01:23:06;;;;;;;16.42;9.15;;;19.50;91.20;;;19.44;56.90;98182.09;5037363;28;20043;-77
2022/11/04 01:25:32;;;;;;;15.85;9.80;;;19.50;91.20;;;19.43;57.15;98178.53;5067912;28;20457;-78
2022/11/04 01:27:58;;;;;;;18.60;9.60;;;19.50;91.20;;;19.47;57.31;98173.16;5048244;28;20043;-77
2022/11/04 01:30:24;;;;;;;19.70;9.93;;;19.50;91.40;;;19.50;57.31;98156.75;5054600;28;20484;-77
2022/11/04 01:32:50;;;;;;;14.48;8.30;;;19.50;91.40;;;19.45;57.00;98159.75;5055046;28;20045;-77
2022/11/04 01:35:16;;;;;;;14.07;8.52;;;19.50;91.20;;;19.43;56.95;98155.75;5051439;28;20072;-77
2022/11/04 01:37:42;;;;;;;14.00;7.90;;;19.50;91.20;;;19.41;56.75;98158.84;5051190;28;20087;-77
2022/11/04 01:40:09;;;;;;;18.13;9.23;;;19.50;91.10;;;19.41;56.92;98147.03;5054790;28;20063;-77
2022/11/04 01:42:37;;;;;;;13.88;8.27;;;19.50;91.20;;;19.43;57.30;98147.50;5037520;28;20032;-77
2022/11/04 01:45:04;;;;;;;13.70;8.57;;;19.40;91.30;;;19.43;57.35;98139.25;5052407;28;20497;-77
2022/11/04 01:47:36;;;;;;;20.20;9.38;;;19.50;91.40;;;19.42;57.63;98140.41;5034446;28;20775;-77
2022/11/04 01:50:14;;;;;;;17.45;9.02;;;19.50;91.40;;;19.39;56.95;98130.91;5038706;28;20045;-78
2022/11/04 01:52:52;;;;;;;16.17;8.23;;;19.40;91.20;;;19.39;57.03;98121.84;5037504;28;20049;-77
2022/11/04 01:55:22;;;;;;;12.25;7.72;;;19.40;91.20;;;19.37;56.80;98124.13;5035902;28;20754;-77
2022/11/04 01:57:49;;;;;;;18.15;9.18;;;19.40;91.20;;;19.40;57.04;98118.72;5035825;28;20067;-77
2022/11/04 02:00:15;;;;;;;16.63;9.68;;;19.40;91.30;;;19.43;57.35;98114.47;5054682;28;20040;-77
2022/11/04 02:02:55;;;;;;;14.60;8.65;;;19.40;91.40;;;19.41;57.32;98116.78;5065811;28;20040;-77
2022/11/04 02:05:21;;;;;;;12.05;7.43;;;19.40;91.50;;;19.36;57.35;98112.34;5052898;28;20052;-77
2022/11/04 02:07:54;;;;;;;13.52;8.05;;;19.40;91.30;;;19.36;57.17;98111.53;5054673;28;20078;-77
2022/11/04 02:10:24;;;;;;;13.82;8.30;;;19.40;91.30;;;19.38;56.85;98109.22;5053593;28;20040;-77
2022/11/04 02:12:51;;;;;;;16.85;8.27;;;19.40;91.20;;;19.37;57.04;98111.19;5069624;28;20566;-77
2022/11/04 02:15:44;;;;;;;11.93;7.07;;;19.40;91.20;;;19.39;57.36;98110.84;5022247;28;20041;-77
2022/11/04 02:18:32;;;;;;;14.35;8.38;;;19.40;91.40;;;19.40;57.56;98104.19;5028403;28;20060;-77
2022/11/04 02:21:12;;;;;;;17.92;8.25;;;19.40;91.50;;;19.35;57.19;98088.72;5042291;28;20037;-77
2022/11/04 02:24:31;;;;;;;16.67;8.97;;;19.40;91.30;;;19.37;57.14;98099.38;5068543;28;20090;-77
2022/11/04 02:27:15;;;;;;;13.32;7.82;;;19.40;91.20;;;19.33;56.96;98088.28;5068397;28;20048;-77
2022/11/04 02:29:57;;;;;;;12.93;7.72;;;19.40;91.20;;;19.33;57.08;98091.03;5069128;28;20063;-78
2022/11/04 02:32:51;;;;;;;11.23;7.55;;;19.30;91.20;;;19.38;57.44;98090.78;5051794;28;20120;-78
2022/11/04 02:35:43;;;;;;;11.48;7.40;;;19.40;91.50;;;19.34;57.75;98091.84;5068397;28;20049;-77
2022/11/04 02:38:28;;;;;;;11.85;7.55;;;19.40;91.50;;;19.30;57.40;98087.03;5060003;28;20508;-78
2022/11/04 02:41:06;;;;;;;16.73;8.45;;;19.40;91.30;;;19.32;57.00;98085.88;5066603;28;20424;-78
2022/11/04 02:44:01;;;;;;;15.55;8.15;;;19.40;91.20;;;19.32;57.12;98083.94;5050035;28;20094;-78
2022/11/04 02:46:36;;;;;;;12.93;7.20;;;19.30;91.20;;;19.33;57.36;98079.22;5065846;28;20056;-77
2022/11/04 02:49:19;;;;;;;16.40;9.15;;;19.30;91.30;;;19.33;57.62;98073.72;5053129;28;20048;-77
2022/11/04 02:52:07;;;;;;;14.25;7.70;;;19.30;91.40;;;19.35;57.69;98077.72;5039082;28;20040;-77
2022/11/04 02:55:02;;;;;;;14.65;7.82;;;19.40;91.50;;;19.30;57.45;98076.03;5067783;28;20481;-77
2022/11/04 02:57:34;;;;;;;15.70;7.18;;;19.30;91.20;;;19.31;57.27;98079.59;5040452;28;20044;-77
2022/11/04 03:00:08;;;;;;;13.27;7.57;;;19.30;91.30;;;19.27;57.11;98087.72;5065733;28;20476;-77
2022/11/04 03:03:00;;;;;;;13.95;8.20;;;19.30;91.30;;;19.30;57.50;98080.72;5035771;28;20044;-77
2022/11/04 03:05:31;;;;;;;11.57;7.13;;;19.30;91.40;;;19.35;57.50;98077.72;5051970;28;20041;-77
2022/11/04 03:08:04;;;;;;;12.45;7.95;;;19.30;91.40;;;19.29;57.81;98071.69;5026820;28;20044;-77
2022/11/04 03:10:37;;;;;;;9.00;6.78;;;19.30;91.40;;;19.29;57.25;98063.44;5041487;28;20068;-78
2022/11/04 03:13:16;;;;;;;12.77;7.70;;;19.30;91.30;;;19.29;57.61;98068.13;5065225;28;20037;-78
2022/11/04 03:16:08;;;;;;;11.15;6.97;;;19.30;91.30;;;19.28;57.10;98056.34;5045182;28;20037;-77
2022/11/04 03:18:42;;;;;;;;;;;19.30;91.30;;;19.29;57.20;98057.13;5047550;28;20044;-78
2022/11/04 03:21:09;;;;;;;12.23;6.32;;;19.30;91.30;;;19.32;57.84;98055.63;5042605;28;20007;-77
2022/11/04 03:23:35;;;;;;;14.18;7.85;;;19.30;91.40;;;19.30;57.79;98054.03;5035299;28;20394;-78
2022/11/04 03:26:14;;;;;;;11.50;6.72;;;19.30;91.40;;;19.26;57.34;98064.13;5031492;28;20041;-78
2022/11/04 03:28:56;;;;;;;11.20;6.55;;;19.30;91.30;;;19.28;57.26;98055.53;5045175;28;20052;-78
2022/11/04 03:31:40;;;;;;;16.40;7.80;;;19.30;91.30;;;19.24;57.33;98066.44;5034071;28;20047;-77
2022/11/04 03:34:06;;;;;;;16.52;7.35;;;19.30;91.20;;;19.26;57.18;98060.59;5052689;28;20048;-78
2022/11/04 03:36:32;;;;;;;11.15;6.40;;;19.30;91.20;;;19.28;57.45;98050.84;5038940;28;20036;-78
2022/11/04 03:38:58;;;;;;;11.13;6.63;;;19.30;91.40;;;19.25;57.99;98047.97;5029331;28;20044;-78
2022/11/04 03:41:42;;;;;;;11.10;6.60;;;19.30;91.80;;;19.24;57.50;98047.19;5025537;28;20047;-77
2022/11/04 03:44:09;;;;;;;13.43;6.97;;;19.30;91.30;;;19.23;57.30;98048.34;5051993;28;20067;-78
2022/11/04 03:46:35;;;;;;;12.73;7.82;;;19.30;91.30;;;19.25;57.42;98037.78;5044885;28;20099;-78
2022/11/04 03:49:01;;;;;;;9.52;5.97;;;19.30;91.30;;;19.22;57.15;98038.47;5061178;28;20116;-78
2022/11/04 03:51:27;;;;;;;9.50;6.35;;;19.20;91.20;;;19.26;57.32;98030.34;5024051;28;20036;-78
2022/11/04 03:53:53;;;;;;;11.27;6.80;;;19.30;91.40;;;19.24;56.91;98033.44;5009086;28;20044;-78
2022/11/04 03:56:36;;;;;;;14.15;6.97;;;19.30;91.10;;;19.16;56.49;98037.13;5030560;28;20045;-77
2022/11/04 03:59:28;;;;;;;12.05;6.45;;;19.20;90.90;;;19.18;56.25;98026.56;5053554;28;20499;-77
2022/11/04 04:02:15;;;;;;;;;;;19.20;90.90;;;19.19;56.10;98027.41;5059169;28;20044;-78
2022/11/04 04:04:58;;;;;;;9.35;6.05;;;19.20;90.90;;;19.20;57.02;98027.03;5058699;28;20311;-78
2022/11/04 04:07:37;;;;;;;10.13;6.65;;;19.20;91.10;;;19.23;57.08;98020.84;5063495;28;20044;-78
2022/11/04 04:10:38;;;;;;;8.13;6.15;;;19.30;91.20;;;19.20;56.35;98026.22;5055621;28;20037;-78
2022/11/04 04:13:38;;;;;;;9.65;6.05;;;19.20;90.80;;;19.18;55.81;98015.56;5063718;28;20521;-78
2022/11/04 04:16:17;;;;;;;8.38;5.75;;;19.20;90.70;;;19.17;55.55;98011.22;5053266;28;20037;-78
2022/11/04 04:18:48;;;;;;;12.82;6.30;;;19.20;90.70;;;19.20;56.21;98017.97;5035979;28;20045;-78
2022/11/04 04:21:18;;;;;;;;;;;19.20;90.90;;;19.23;56.55;98018.09;5036723;28;20137;-78
2022/11/04 04:29:13;;;;;;;10.43;6.68;;;19.20;90.70;;;19.14;55.66;97998.19;5056363;28;20045;-77
2022/11/04 04:31:49;;;;;;;9.10;5.53;;;19.20;90.60;;;19.15;55.37;97994.28;5050690;28;20036;-78
2022/11/04 04:34:29;;;;;;;9.70;6.32;;;19.20;90.60;;;19.14;55.62;97989.94;5038188;28;20040;-78
2022/11/04 04:37:10;;;;;;;7.40;5.75;;;19.10;90.70;;;19.18;56.34;97990.84;5051562;28;20037;-78
2022/11/04 04:45:32;;;;;;;9.55;5.25;;;19.20;90.60;;;19.18;55.13;97990.03;5057087;28;20064;-77
2022/11/04 04:47:58;;;;;;;9.25;5.38;;;19.10;90.50;;;19.16;55.09;97982.16;5037902;28;20036;-77
2022/11/04 04:50:27;;;;;;;8.20;5.47;;;19.10;90.60;;;19.14;55.13;97980.91;5033906;28;20041;-77
2022/11/04 04:52:55;;;;;;;11.43;5.82;;;19.00;90.60;;;19.15;56.11;97980.53;5067374;28;20102;-77
2022/11/04 04:55:20;;;;;;;8.23;5.45;;;19.10;90.90;;;19.16;56.05;97975.84;5053281;28;20036;-77
2022/11/04 04:57:47;;;;;;;11.02;5.90;;;19.20;90.90;;;19.11;55.77;97971.41;5068103;28;20423;-77
2022/11/04 05:00:16;;;;;;;13.30;6.47;;;19.20;91.00;;;19.13;55.17;97971.03;5044811;28;20048;-77
2022/11/04 05:02:45;;;;;;;9.07;5.30;;;19.20;90.50;;;19.13;54.93;97971.84;5055791;28;20428;-77
2022/11/04 05:05:12;;;;;;;9.02;4.95;;;19.10;90.40;;;19.10;54.84;97972.53;5045085;28;20116;-78
2022/11/04 05:07:38;;;;;;;7.80;5.90;;;19.10;90.50;;;19.14;55.30;97967.16;5025694;28;20059;-77
2022/11/04 05:10:06;;;;;;;8.20;5.63;;;19.10;90.60;;;19.14;55.86;97956.97;5046307;28;20079;-78
2022/11/04 05:15:19;;;;;;;7.20;5.70;;;19.10;90.80;;;19.11;55.12;97954.91;5041702;28;20044;-78
2022/11/04 05:17:45;;;;;;;8.23;5.65;;;19.10;90.40;;;19.07;55.29;97965.00;5047680;28;20063;-78
2022/11/04 05:20:12;;;;;;;8.15;5.50;;;19.00;90.40;;;19.06;54.98;97964.22;5041215;28;20076;-78
2022/11/04 05:22:39;;;;;;;7.32;5.18;;;19.00;90.40;;;19.07;54.77;97968.53;5042410;28;20472;-77
2022/11/04 05:25:06;;;;;;;7.25;5.10;;;19.00;90.40;;;19.11;55.46;97957.66;5034454;28;20032;-77
2022/11/04 05:27:32;;;;;;;9.02;5.47;;;19.00;90.80;;;19.16;55.39;97965.66;5056615;28;20041;-77
2022/11/04 05:29:59;;;;;;;6.68;4.88;;;19.10;90.70;;;19.11;55.47;97960.41;5014280;28;20040;-77
2022/11/04 05:32:27;;;;;;;9.52;4.75;;;19.10;90.60;;;19.08;54.80;97948.19;5025059;28;20454;-77
2022/11/04 05:34:53;;;;;;;6.05;5.28;;;19.10;90.70;;;19.04;54.79;97952.75;5065896;28;20044;-77
2022/11/04 05:37:19;;;;;;;9.00;5.30;;;19.10;90.40;;;19.06;54.53;97950.47;5048245;28;20427;-77
2022/11/04 05:39:45;;;;;;;6.95;5.05;;;19.10;90.30;;;19.06;54.99;97961.47;5037575;28;20041;-77
2022/11/04 05:42:11;;;;;;;6.45;5.72;;;19.00;90.50;;;19.07;55.43;97962.25;5031471;28;20037;-77
2022/11/04 05:44:37;;;;;;;9.40;4.88;;;19.00;90.80;;;19.09;55.50;97966.25;5068312;28;20185;-77
2022/11/04 05:47:05;;;;;;;8.43;4.93;;;19.10;90.80;;;19.06;55.08;97955.16;5032237;28;20049;-77
2022/11/04 05:49:32;;;;;;;7.97;4.88;;;19.10;90.50;;;19.07;54.85;97962.25;5064319;28;20053;-76
2022/11/04 05:51:58;;;;;;;7.45;5.28;;;19.00;90.30;;;19.06;54.85;97972.47;5016631;28;20044;-77
2022/11/04 05:54:25;;;;;;;6.03;4.75;;;19.00;90.40;;;19.06;54.87;97960.66;5036286;28;20055;-77
2022/11/04 05:56:51;;;;;;;7.97;5.32;;;19.00;90.40;;;19.07;55.01;97963.06;5048814;28;20040;-77
2022/11/04 05:59:17;;;;;;;6.28;4.75;;;19.10;90.50;;;19.06;55.07;97960.66;5053362;28;20036;-77
2022/11/04 06:01:43;;;;;;;6.43;4.25;;;19.00;90.40;;;19.07;55.06;97967.75;5050619;28;20522;-76
2022/11/04 06:04:16;;;;;;;7.63;5.05;;;19.00;90.50;;;19.06;55.44;97966.16;5044275;28;20600;-77
2022/11/04 06:06:42;;;;;;;8.07;5.13;;;19.00;90.60;;;19.09;55.48;97970.97;5030685;28;20071;-78
2022/11/04 06:09:11;;;;;;;6.07;4.70;;;19.10;90.70;;;19.07;55.73;97962.25;5051964;28;20098;-80
2022/11/04 06:11:37;;;;;;;5.47;4.53;;;19.00;90.70;;;19.07;55.45;97967.75;5028847;28;20477;-77
2022/11/04 06:14:04;;;;;;;6.10;4.13;;;19.00;90.70;;;19.06;55.44;97961.47;5041601;28;20058;-77
2022/11/04 06:16:29;;;;;;;7.75;4.57;;;19.00;90.70;;;19.08;55.48;97958.34;5032170;28;20491;-79
2022/11/04 06:18:56;;;;;;;6.43;4.70;;;19.00;90.60;;;19.08;55.79;97970.16;5030363;28;20135;-79
2022/11/04 06:21:27;;;;;;;8.10;4.80;;;19.00;90.80;;;19.08;55.91;97964.66;5042622;28;20647;-77
2022/11/04 06:23:56;;;;;;;7.35;5.15;;;19.10;90.90;;;19.04;56.07;97957.47;5027175;28;20721;-78
2022/11/04 06:26:22;;;;;;;6.82;4.80;;;19.00;90.80;;;19.05;55.81;97959.06;5049788;28;20062;-77
2022/11/04 06:28:49;;;;;;;8.68;5.28;;;19.00;90.80;;;19.06;55.70;97958.72;5046811;28;20040;-77
2022/11/04 06:31:15;;;;;;;8.48;4.32;;;19.00;90.70;;;19.08;55.56;97966.59;5031409;28;20416;-77
2022/11/04 06:33:41;;;;;;;8.13;4.70;;;19.00;90.70;;;19.08;55.56;97958.34;5052759;28;20106;-77
2022/11/04 06:36:09;;;;;;;6.60;4.55;;;19.00;90.70;;;19.16;55.68;97971.16;5031146;28;20060;-77
2022/11/04 06:38:36;;;;;;;6.53;5.07;;;19.00;90.80;;;19.14;55.93;97967.16;5026658;28;20052;-77
2022/11/04 06:41:03;;;;;;;6.53;4.63;;;19.10;90.90;;;19.08;56.01;97967.41;5027667;28;20476;-77
2022/11/04 06:43:30;;;;;;;5.80;4.82;;;19.10;90.90;;;19.08;55.97;97958.34;5034230;28;20033;-77
2022/11/04 06:45:57;;;;;;;7.55;4.55;;;19.00;90.80;;;19.07;55.95;97957.56;5016097;28;20510;-77
2022/11/04 06:48:25;;;;;;;8.48;5.60;;;19.00;90.80;;;19.11;55.91;97954.91;5047299;28;20061;-77
2022/11/04 06:50:51;;;;;;;9.73;4.97;;;19.00;90.80;;;19.14;55.78;97951.47;5034502;28;20036;-77
2022/11/04 06:53:18;;;;;;;9.15;4.93;;;19.00;90.90;;;19.11;56.10;97952.16;5029141;28;20044;-77
2022/11/04 06:55:44;;;;;;;7.32;4.03;;;19.00;91.00;;;19.17;56.02;97960.97;5048473;28;20531;-77
2022/11/04 06:58:10;;;;;;;8.65;4.95;;;19.00;91.00;;;19.13;56.06;97955.34;5047661;28;20052;-77
2022/11/04 07:00:36;;;;;;;9.73;5.05;;;19.10;90.90;;;19.12;55.85;97951.00;5041811;28;20116;-77
2022/11/04 07:03:02;;;;;;;7.65;5.13;;;19.00;90.80;;;19.14;55.60;97950.66;5047761;28;20052;-77
2022/11/04 07:05:31;;;;;;;7.35;5.07;;;19.00;90.80;;;19.14;55.59;97953.41;5035025;28;20045;-77
2022/11/04 07:07:57;;;;;;;5.25;3.67;;;19.00;90.80;;;19.15;55.97;97952.25;5040404;28;20040;-77
2022/11/04 07:10:23;;;;;;;7.10;4.70;;;19.00;90.90;;;19.20;55.86;97955.53;5027507;28;20369;-77
2022/11/04 07:12:49;;;;;;;6.55;4.55;;;19.00;90.90;;;19.20;55.99;97949.25;5035963;28;20130;-77
2022/11/04 07:15:15;;;;;;;10.80;4.30;;;19.10;91.00;;;19.15;55.72;97958.56;5061345;28;20040;-77
2022/11/04 07:17:43;;;;;;;7.88;4.60;;;19.10;90.80;;;19.15;55.60;97958.56;5014322;28;20044;-77
2022/11/04 07:20:12;;;;;;;7.78;4.57;;;19.10;90.80;;;19.19;55.45;97962.22;5025968;28;20040;-77
2022/11/04 07:22:38;;;;;;;7.13;5.15;;;19.10;90.80;;;19.17;55.54;97947.22;5048086;28;20480;-77
2022/11/04 07:25:05;;;;;;;7.80;4.32;;;19.10;90.80;;;19.22;55.55;97942.25;5049576;28;20047;-76
2022/11/04 07:27:31;;;;;;;7.30;4.25;;;19.10;90.90;;;19.23;55.79;97943.88;5060705;28;20061;-76
2022/11/04 07:29:57;;;;;;;6.57;4.47;;;19.10;90.80;;;19.23;55.63;97937.56;5016584;28;20474;-77
2022/11/04 07:32:24;;;;;;;7.22;4.47;;;19.20;90.80;;;19.23;55.29;97930.13;5032996;28;20050;-77
2022/11/04 07:34:49;;;;;;;5.85;4.43;;;19.10;90.70;;;19.25;55.40;97941.53;5030991;28;20523;-77
2022/11/04 07:37:16;;;;;;;4.88;4.10;;;19.20;90.70;;;19.27;55.22;97933.75;5041774;28;20049;-77
2022/11/04 07:39:42;;;;;;;6.53;4.72;;;19.20;90.70;;;19.27;55.05;97939.25;5044070;28;20494;-77
2022/11/04 07:42:08;;;;;;;7.40;5.03;;;19.20;90.60;;;19.31;55.35;97933.88;5030119;28;20041;-77
2022/11/04 07:44:34;;;;;;;5.40;4.28;;;19.20;90.70;;;19.35;55.48;97928.44;5043847;28;20051;-77
2022/11/04 07:47:00;;;;;;;5.63;4.28;;;19.20;90.70;;;19.33;55.03;97914.25;5030987;28;20480;-77
2022/11/04 07:49:28;;;;;;;6.22;4.28;;;19.20;90.60;;;19.35;54.93;97926.50;5049897;28;20246;-77
2022/11/04 07:51:54;;;;;;;6.07;4.05;;;19.20;90.60;;;19.37;54.73;97915.16;5027062;28;20051;-77
2022/11/04 07:54:20;;;;;;;6.03;4.13;;;19.20;90.50;;;19.34;54.78;97919.41;5043115;28;20370;-77
2022/11/04 07:56:47;;;;;;;5.68;4.43;;;19.20;90.50;;;19.37;55.07;97926.94;5044316;28;20071;-77
2022/11/04 07:59:13;;;;;;;4.68;4.07;;;19.30;90.60;;;19.37;55.00;97926.16;5027323;28;20046;-77
2022/11/04 08:01:39;;;;;;;10.95;5.28;;;19.30;90.60;;;19.38;54.56;97917.53;5030233;28;20040;-77
2022/11/04 08:04:06;;;;;;;5.43;4.40;;;19.30;90.60;;;19.39;54.58;97918.34;5060697;28;20051;-77
2022/11/04 08:06:32;;;;;;;5.70;4.03;;;19.30;90.50;;;19.41;54.46;97905.03;5055359;28;20110;-77
2022/11/04 08:08:58;;;;;;;6.38;4.00;;;19.40;90.50;;;19.45;54.29;97908.66;5023464;28;20335;-77
2022/11/04 08:11:27;;;;;;;4.93;3.17;;;19.40;90.40;;;19.44;54.48;97899.63;5042837;28;20487;-77
2022/11/04 08:13:54;;;;;;;6.03;4.15;;;19.30;90.30;;;19.45;54.63;97892.97;5028666;28;20041;-77
2022/11/04 08:16:22;;;;;;;6.28;3.95;;;19.40;90.50;;;19.48;54.51;97896.97;5026819;28;20049;-77
2022/11/04 08:18:51;;;;;;;6.82;4.18;;;19.40;90.40;;;19.48;54.35;97891.47;5026444;28;20045;-77
2022/11/04 08:21:18;;;;;;;9.68;4.40;;;19.40;90.40;;;19.47;54.22;97884.38;5042230;28;20507;-77
2022/11/04 08:23:44;;;;;;;6.25;4.22;;;19.40;90.30;;;19.46;54.32;97888.25;5012585;28;20115;-77
2022/11/04 08:26:14;;;;;;;4.75;3.92;;;19.40;90.30;;;19.47;54.23;97884.38;5026776;28;20510;-77
2022/11/04 08:28:40;;;;;;;6.05;4.32;;;19.40;90.20;;;19.49;54.07;97885.63;5019195;28;20354;-77
2022/11/04 08:31:10;;;;;;;4.20;3.58;;;19.50;90.30;;;19.51;54.47;97888.00;5051048;28;20047;-77
2022/11/04 08:33:36;;;;;;;5.57;4.07;;;19.50;90.40;;;19.51;54.27;97880.56;5029672;28;20048;-77
2022/11/04 08:36:08;;;;;;;7.97;3.92;;;19.50;90.30;;;19.53;54.12;97880.97;5017638;28;20491;-77
2022/11/04 08:38:35;;;;;;;5.47;4.22;;;19.50;90.20;;;19.52;54.02;97878.59;5015919;28;20534;-77
2022/11/04 08:41:02;;;;;;;4.80;3.58;;;19.50;90.10;;;19.55;53.92;97877.09;5050265;28;20040;-77
2022/11/04 08:43:29;;;;;;;5.00;3.70;;;19.50;90.10;;;19.56;53.96;97873.19;5030036;28;20055;-77
2022/11/04 08:45:55;;;;;;;7.90;4.35;;;19.50;90.10;;;19.57;54.04;97858.28;5046370;28;20159;-77
2022/11/04 08:48:21;;;;;;;5.45;3.85;;;19.50;90.20;;;19.56;54.09;97859.44;5027562;28;20434;-77
2022/11/04 08:50:53;;;;;;;6.10;4.18;;;19.50;90.20;;;19.57;54.01;97856.34;5050549;28;20040;-77
2022/11/04 08:53:19;;;;;;;;;;;19.60;90.20;;;19.57;53.92;97853.56;5041869;28;20506;-77
2022/11/04 08:55:46;;;;;;;5.80;4.13;;;19.60;90.10;;;19.59;53.85;97855.97;5036865;28;19932;-77
2022/11/04 08:58:12;;;;;;;6.05;3.72;;;19.60;90.00;;;19.59;53.82;97851.28;5038619;28;20411;-77
2022/11/04 09:00:38;;;;;;;5.05;4.40;;;19.60;90.00;;;19.62;53.62;97847.81;5045901;28;20049;-77
2022/11/04 09:03:07;;;;;;;5.53;3.63;;;19.60;90.00;;;19.63;53.83;97848.59;5024147;28;20049;-77
2022/11/04 09:05:35;;;;;;;4.20;3.72;;;19.60;90.10;;;19.63;54.06;97841.13;5032758;28;20036;-77
2022/11/04 09:08:01;;;;;;;5.22;3.60;;;19.60;90.10;;;19.59;53.72;97826.53;5033336;28;20037;-77
2022/11/04 09:10:27;;;;;;;4.28;3.88;;;19.60;90.00;;;19.63;53.60;97835.63;5030555;28;20032;-77
2022/11/04 09:12:53;;;;;;;5.10;3.83;;;19.60;89.80;;;19.65;53.72;97830.59;5027594;28;20407;-77
2022/11/04 09:15:19;;;;;;;5.35;3.70;;;19.70;89.80;;;19.66;53.40;97834.13;5063414;28;20045;-77
2022/11/04 09:17:45;;;;;;;6.07;3.72;;;19.70;89.90;;;19.67;53.58;97828.31;5041261;28;20675;-77
2022/11/04 09:20:13;;;;;;;6.85;3.97;;;19.70;90.00;;;19.69;53.55;97822.44;5050720;28;20071;-77
2022/11/04 09:22:39;;;;;;;4.68;3.35;;;19.70;89.80;;;19.71;53.75;97825.63;5063909;28;20037;-77
2022/11/04 09:25:06;;;;;;;5.13;3.78;;;19.70;89.80;;;19.72;53.49;97819.00;5045723;28;20455;-77
2022/11/04 09:27:32;;;;;;;4.30;3.40;;;19.80;90.00;;;19.72;53.32;97824.50;5050620;28;20049;-77
2022/11/04 09:29:58;;;;;;;3.97;3.25;;;19.80;90.00;;;19.73;53.28;97824.13;5047076;28;20041;-77
2022/11/04 09:32:24;;;;;;;3.92;3.10;;;19.80;90.00;;;19.75;53.09;97826.53;5047790;28;20036;-77
2022/11/04 09:34:50;;;;;;;5.03;3.70;;;19.80;89.90;;;19.77;53.36;97826.16;5033198;28;20040;-77
2022/11/04 09:37:16;;;;;;;3.92;3.53;;;19.80;90.00;;;19.80;53.33;97820.75;5042791;28;20041;-77
2022/11/04 09:39:42;;;;;;;3.75;3.10;;;19.80;90.00;;;19.80;53.53;97812.47;5045585;28;20041;-77
2022/11/04 09:42:47;;;;;;;6.07;4.30;;;19.80;90.00;;;19.84;52.99;97810.59;5036059;28;20052;-77
2022/11/04 09:45:17;;;;;;;5.35;3.75;;;19.80;89.70;;;19.83;52.71;97811.75;5007944;28;20056;-77
2022/11/04 09:47:46;;;;;;;4.88;3.60;;;19.90;89.70;;;19.84;53.06;97818.06;4955837;28;20061;-77
2022/11/04 09:50:26;;;;;;;5.93;3.88;;;19.90;89.70;;;19.88;52.88;97796.94;4984917;28;20048;-77
2022/11/04 09:53:17;;;;;;;4.72;3.90;;;19.90;90.00;;;19.87;52.88;97787.88;5044180;28;20067;-77
2022/11/04 09:56:13;;;;;;;4.13;3.60;;;19.90;89.90;;;19.87;53.08;97789.81;5045335;28;20050;-77
2022/11/04 09:58:39;;;;;;;3.80;3.03;;;19.90;89.60;;;19.91;52.86;97785.19;5061321;28;20060;-77
2022/11/04 10:01:26;;;;;;;6.43;3.08;;;19.90;89.50;;;19.92;52.68;97786.78;5031428;28;20052;-77
2022/11/04 10:04:19;;;;;;;4.10;2.80;;;19.90;89.40;;;19.91;52.79;97779.69;5049575;28;20494;-77
2022/11/04 10:06:52;;;;;;;6.30;3.70;;;19.90;89.40;;;19.90;52.85;97783.63;5018387;28;20443;-77
2022/11/04 10:09:27;;;;;;;5.00;3.00;;;19.90;89.40;;;19.94;52.95;97782.50;5045221;28;20048;-77
2022/11/04 10:12:26;;;;;;;6.20;3.25;;;20.00;89.60;;;19.91;52.83;97779.69;5051624;28;20561;-77
2022/11/04 10:15:29;;;;;;;3.80;2.72;;;20.00;89.50;;;19.99;52.64;97791.66;5034975;28;20555;-77
2022/11/04 10:18:03;;;;;;;4.30;3.22;;;20.00;89.40;;;20.03;52.47;97787.81;5060557;28;20045;-77
2022/11/04 10:21:06;;;;;;;6.43;3.60;;;20.00;89.40;;;20.06;52.13;97791.81;5056795;28;20040;-77
2022/11/04 10:23:58;;;;;;;4.28;3.25;;;20.00;89.10;;;20.07;52.37;97779.63;5062360;28;20428;-77
2022/11/04 10:26:30;;;;;;;4.35;3.17;;;20.00;89.40;;;20.04;52.62;97781.16;5045442;28;20122;-77
2022/11/04 10:29:11;;;;;;;3.47;2.90;;;20.10;89.50;;;20.08;52.26;97776.53;5037046;28;20097;-77
2022/11/04 10:31:37;;;;;;;5.15;3.85;;;20.10;89.30;;;20.08;52.22;97781.25;5021998;28;20036;-77
2022/11/04 10:34:29;;;;;;;3.92;3.28;;;20.10;89.10;;;20.11;52.28;97775.81;5027037;28;20040;-78
2022/11/04 10:36:55;;;;;;;5.65;3.55;;;20.10;89.10;;;20.15;51.75;97768.41;5020930;28;20498;-77
2022/11/04 10:39:31;;;;;;;3.83;3.28;;;20.10;88.90;;;20.13;52.22;97776.25;5050086;28;20044;-77
2022/11/04 10:41:58;;;;;;;5.28;3.17;;;20.10;89.10;;;20.12;52.14;97768.31;5042944;28;20040;-77
2022/11/04 10:44:29;;;;;;;6.22;2.80;;;20.10;89.10;;;20.11;52.24;97773.03;5028947;28;20064;-77
2022/11/04 10:47:07;;;;;;;5.35;3.22;;;20.10;89.10;;;20.15;51.84;97775.88;5033553;28;20045;-77
2022/11/04 10:49:44;;;;;;;6.03;2.97;;;20.10;88.90;;;20.19;51.88;97778.69;5062839;28;20052;-78
2022/11/04 10:52:11;;;;;;;4.75;3.42;;;20.10;88.90;;;20.16;51.73;97775.50;5038795;28;20044;-77
2022/11/04 10:54:43;;;;;;;4.90;2.83;;;20.20;88.90;;;20.17;51.88;97771.63;5047010;28;20098;-77
2022/11/04 10:57:11;;;;;;;3.65;2.67;;;20.10;89.00;;;20.15;51.99;97767.63;5029790;28;20072;-77
2022/11/04 10:59:53;;;;;;;3.72;2.80;;;20.10;90.00;;;20.21;52.14;97770.88;5061680;28;20037;-77
2022/11/04 11:02:40;;;;;;;4.43;3.25;;;20.20;89.10;;;20.24;51.82;97765.44;5062794;28;20051;-77